createdAt,value
2017-05-30T00:02:07.021Z,22.50
2017-05-30T00:04:36.101Z,22.60
2017-05-30T00:07:05.254Z,22.70
2017-05-30T00:09:33.332Z,22.70
2017-05-30T00:12:02.211Z,22.70
2017-05-30T00:14:31.175Z,22.60
2017-05-30T00:17:00.810Z,22.50
2017-05-30T00:19:29.671Z,22.20
2017-05-30T00:21:58.512Z,22.00
2017-05-30T00:24:27.365Z,22.10
2017-05-30T00:26:56.199Z,21.90
2017-05-30T00:29:25.070Z,22.00
2017-05-30T00:31:53.925Z,21.80
2017-05-30T00:34:22.907Z,21.70
2017-05-30T00:36:51.757Z,21.90
2017-05-30T00:39:20.607Z,22.10
2017-05-30T00:41:49.460Z,22.20
2017-05-30T00:44:17.535Z,22.20
2017-05-30T00:46:46.385Z,22.10
2017-05-30T00:49:15.226Z,21.90
2017-05-30T00:51:44.072Z,21.70
2017-05-30T00:54:12.983Z,21.80
2017-05-30T00:56:41.820Z,21.90
2017-05-30T00:59:10.659Z,22.00
2017-05-30T01:01:39.515Z,21.90
2017-05-30T01:04:08.386Z,22.00
2017-05-30T01:06:37.225Z,22.10
2017-05-30T01:09:06.067Z,22.10
2017-05-30T01:11:34.925Z,22.10
2017-05-30T01:14:03.882Z,22.00
2017-05-30T01:16:32.729Z,22.10
2017-05-30T01:19:01.569Z,22.00
2017-05-30T01:21:30.427Z,22.00
2017-05-30T01:23:59.266Z,22.00
2017-05-30T01:26:28.108Z,21.90
2017-05-30T01:28:56.967Z,21.70
2017-05-30T01:31:25.798Z,21.40
2017-05-30T01:33:54.661Z,21.60
2017-05-30T01:36:23.514Z,21.60
2017-05-30T01:38:52.373Z,21.50
2017-05-30T01:41:21.211Z,21.30
2017-05-30T01:43:50.047Z,21.50
2017-05-30T01:46:18.897Z,21.70
2017-05-30T01:48:47.732Z,21.60
2017-05-30T01:51:16.579Z,21.30
2017-05-30T01:53:44.689Z,21.30
2017-05-30T01:56:13.530Z,21.30
2017-05-30T01:58:42.377Z,21.40
2017-05-30T02:01:11.208Z,21.50
2017-05-30T02:03:40.063Z,21.50
2017-05-30T02:06:08.939Z,21.30
2017-05-30T02:08:37.779Z,21.30
2017-05-30T02:11:06.620Z,21.50
2017-05-30T02:13:35.610Z,21.30
2017-05-30T02:16:04.447Z,21.30
2017-05-30T02:18:33.296Z,21.40
2017-05-30T02:21:02.151Z,21.60
2017-05-30T02:23:31.013Z,21.60
2017-05-30T02:26:00.073Z,21.80
2017-05-30T02:28:28.909Z,21.90
2017-05-30T02:33:36.386Z,21.70
2017-05-30T02:36:05.282Z,21.40
2017-05-30T02:38:34.133Z,21.60
2017-05-30T02:41:02.961Z,21.80
2017-05-30T02:43:31.804Z,21.80
2017-05-30T02:46:00.648Z,21.80
2017-05-30T02:48:29.495Z,21.80
2017-05-30T02:50:57.569Z,21.80
2017-05-30T02:53:26.428Z,21.60
2017-05-30T02:55:55.262Z,21.50
2017-05-30T02:58:24.107Z,21.40
2017-05-30T03:00:52.959Z,21.20
2017-05-30T03:03:21.809Z,21.10
2017-05-30T03:05:50.657Z,21.10
2017-05-30T03:08:19.505Z,21.00
2017-05-30T03:10:48.367Z,21.00
2017-05-30T03:13:17.308Z,20.90
2017-05-30T03:15:46.147Z,20.80
2017-05-30T03:18:14.983Z,20.80
2017-05-30T03:20:43.815Z,20.90
2017-05-30T03:23:12.649Z,20.80
2017-05-30T03:25:41.496Z,20.80
2017-05-30T03:28:10.358Z,21.00
2017-05-30T03:30:39.191Z,21.20
2017-05-30T03:33:08.020Z,21.20
2017-05-30T03:35:36.852Z,21.00
2017-05-30T03:38:05.708Z,21.10
2017-05-30T03:40:34.539Z,21.00
2017-05-30T03:43:03.385Z,20.90
2017-05-30T03:45:32.225Z,20.80
2017-05-30T03:48:01.065Z,20.90
2017-05-30T03:50:29.142Z,20.80
2017-05-30T03:52:57.978Z,20.60
2017-05-30T03:55:26.805Z,20.60
2017-05-30T03:57:55.660Z,20.80
2017-05-30T04:00:24.509Z,20.90
2017-05-30T04:02:53.368Z,20.80
2017-05-30T04:05:22.205Z,20.70
2017-05-30T04:07:51.044Z,20.90
2017-05-30T04:10:19.879Z,20.80
2017-05-30T04:12:48.712Z,20.80
2017-05-30T04:15:17.564Z,20.90
2017-05-30T04:17:46.395Z,20.70
2017-05-30T04:20:15.251Z,20.80
2017-05-30T04:22:44.081Z,20.80
2017-05-30T04:25:12.911Z,21.00
2017-05-30T04:27:41.752Z,20.90
2017-05-30T04:30:10.578Z,20.90
2017-05-30T04:32:39.423Z,21.10
2017-05-30T04:35:08.258Z,21.20
2017-05-30T04:37:37.109Z,21.20
2017-05-30T04:40:05.949Z,21.10
2017-05-30T04:42:34.781Z,20.90
2017-05-30T04:45:03.611Z,21.00
2017-05-30T04:47:32.449Z,21.00
2017-05-30T04:50:01.288Z,20.90
2017-05-30T04:52:30.360Z,21.00
2017-05-30T04:54:59.293Z,21.10
2017-05-30T04:57:28.131Z,21.10
2017-05-30T04:59:56.961Z,21.10
2017-05-30T05:02:25.805Z,21.20
2017-05-30T05:04:53.896Z,21.20
2017-05-30T05:07:22.739Z,21.00
2017-05-30T05:09:51.568Z,20.80
2017-05-30T05:12:20.408Z,21.00
2017-05-30T05:14:49.244Z,21.20
2017-05-30T05:17:18.075Z,21.30
2017-05-30T05:19:46.923Z,20.90
2017-05-30T05:22:15.775Z,20.90
2017-05-30T05:24:44.665Z,20.90
2017-05-30T05:27:13.493Z,21.10
2017-05-30T05:29:42.333Z,21.30
2017-05-30T05:32:11.179Z,21.50
2017-05-30T05:34:40.011Z,21.80
2017-05-30T05:37:08.872Z,21.90
2017-05-30T05:39:37.722Z,21.90
2017-05-30T05:42:06.577Z,21.90
2017-05-30T05:44:35.417Z,22.10
2017-05-30T05:47:04.255Z,22.40
2017-05-30T05:49:33.116Z,22.60
2017-05-30T05:52:01.949Z,22.80
2017-05-30T05:54:30.788Z,23.10
2017-05-30T05:56:59.892Z,23.10
2017-05-30T05:59:28.724Z,23.20
2017-05-30T06:01:57.552Z,23.20
2017-05-30T06:04:26.442Z,23.00
2017-05-30T06:06:55.234Z,22.80
2017-05-30T06:09:24.073Z,22.70
2017-05-30T06:11:52.931Z,22.60
2017-05-30T06:14:21.764Z,22.60
2017-05-30T06:16:50.627Z,22.50
2017-05-30T06:19:19.476Z,22.50
2017-05-30T06:21:48.307Z,22.50
2017-05-30T06:24:17.158Z,22.50
2017-05-30T06:26:45.984Z,22.50
2017-05-30T06:29:14.829Z,22.60
2017-05-30T06:31:43.693Z,22.70
2017-05-30T06:34:12.625Z,22.60
2017-05-30T06:36:41.471Z,22.30
2017-05-30T06:39:10.312Z,21.60
2017-05-30T06:41:38.392Z,21.60
2017-05-30T06:44:07.236Z,21.50
2017-05-30T06:46:36.102Z,22.10
2017-05-30T06:49:04.948Z,22.60
2017-05-30T06:51:33.028Z,22.60
2017-05-30T06:54:01.882Z,23.00
2017-05-30T06:56:29.952Z,23.00
2017-05-30T06:58:58.798Z,23.30
2017-05-30T07:01:27.625Z,23.60
2017-05-30T07:03:56.464Z,24.20
2017-05-30T07:06:25.543Z,24.90
2017-05-30T07:08:54.369Z,25.60
2017-05-30T07:11:23.201Z,25.90
2017-05-30T07:13:52.032Z,25.70
2017-05-30T07:16:20.933Z,25.90
2017-05-30T07:18:49.812Z,26.40
2017-05-30T07:21:18.646Z,26.70
2017-05-30T07:23:47.476Z,26.60
2017-05-30T07:26:16.331Z,26.30
2017-05-30T07:28:45.176Z,25.90
2017-05-30T07:31:14.008Z,25.70
2017-05-30T07:33:42.906Z,25.40
2017-05-30T07:36:11.730Z,25.20
2017-05-30T07:38:40.568Z,25.00
2017-05-30T07:41:09.399Z,25.20
2017-05-30T07:43:38.255Z,25.30
2017-05-30T07:46:07.089Z,25.20
2017-05-30T07:48:35.924Z,25.20
2017-05-30T07:51:04.777Z,25.20
2017-05-30T07:53:33.625Z,25.30
2017-05-30T07:56:02.463Z,25.40
2017-05-30T07:58:31.290Z,25.70
2017-05-30T08:01:00.193Z,26.20
2017-05-30T08:03:29.133Z,26.80
2017-05-30T08:05:58.015Z,27.40
2017-05-30T08:08:26.856Z,27.60
2017-05-30T08:10:55.697Z,27.60
2017-05-30T08:13:24.537Z,27.50
2017-05-30T08:15:53.373Z,27.90
2017-05-30T08:18:22.228Z,27.90
2017-05-30T08:20:51.065Z,27.60
2017-05-30T08:23:19.896Z,27.00
2017-05-30T08:25:48.749Z,26.70
2017-05-30T08:28:17.576Z,26.50
2017-05-30T08:30:46.416Z,26.70
2017-05-30T08:33:15.264Z,27.20
2017-05-30T08:35:44.113Z,27.60
2017-05-30T08:38:12.944Z,27.10
2017-05-30T08:40:42.096Z,27.00
2017-05-30T08:43:10.943Z,26.70
2017-05-30T08:45:39.778Z,27.50
2017-05-30T08:48:08.620Z,27.00
2017-05-30T08:50:37.454Z,27.20
2017-05-30T08:53:06.310Z,28.20
2017-05-30T08:55:35.136Z,29.00
2017-05-30T08:58:04.007Z,28.10
2017-05-30T09:00:32.847Z,28.30
2017-05-30T09:03:01.681Z,28.10
2017-05-30T09:05:30.563Z,28.50
2017-05-30T09:07:59.412Z,29.10
2017-05-30T09:10:28.265Z,29.50
2017-05-30T09:12:57.112Z,29.40
2017-05-30T09:15:25.975Z,29.60
2017-05-30T09:17:54.807Z,28.20
2017-05-30T09:20:23.636Z,28.40
2017-05-30T09:22:52.479Z,28.40
2017-05-30T09:25:21.312Z,28.20
2017-05-30T09:27:50.233Z,28.70
2017-05-30T09:30:19.089Z,28.00
2017-05-30T09:32:47.940Z,28.30
2017-05-30T09:35:17.622Z,29.20
2017-05-30T09:37:46.463Z,28.90
2017-05-30T09:40:15.440Z,28.60
2017-05-30T09:42:44.273Z,28.30
2017-05-30T09:45:13.199Z,28.60
2017-05-30T09:47:42.034Z,29.70
2017-05-30T09:50:10.889Z,28.50
2017-05-30T09:52:39.711Z,28.30
2017-05-30T09:55:08.566Z,28.50
2017-05-30T09:57:37.410Z,28.60
2017-05-30T10:00:06.264Z,30.20
2017-05-30T10:02:35.267Z,30.40
2017-05-30T10:05:04.095Z,28.50
2017-05-30T10:07:32.950Z,29.10
2017-05-30T10:10:01.788Z,29.30
2017-05-30T10:12:30.628Z,29.20
2017-05-30T10:14:59.464Z,30.00
2017-05-30T10:17:28.300Z,30.60
2017-05-30T10:19:57.140Z,29.60
2017-05-30T10:22:25.969Z,29.90
2017-05-30T10:24:54.833Z,30.10
2017-05-30T10:27:23.672Z,29.20
2017-05-30T10:29:52.507Z,29.00
2017-05-30T10:32:21.339Z,29.50
2017-05-30T10:34:50.166Z,30.60
2017-05-30T10:37:19.012Z,29.60
2017-05-30T10:39:47.841Z,30.30
2017-05-30T10:42:16.687Z,31.40
2017-05-30T10:44:45.517Z,32.20
2017-05-30T10:47:14.357Z,31.90
2017-05-30T10:49:43.208Z,29.90
2017-05-30T10:52:12.039Z,28.80
2017-05-30T10:54:40.890Z,28.60
2017-05-30T10:57:09.713Z,29.00
2017-05-30T10:59:38.558Z,27.80
2017-05-30T11:02:07.392Z,27.60
2017-05-30T11:04:35.466Z,27.60
2017-05-30T11:07:04.309Z,27.50
2017-05-30T11:09:33.138Z,27.50
2017-05-30T11:12:01.997Z,27.00
2017-05-30T11:14:30.829Z,26.90
2017-05-30T11:17:00.060Z,26.80
2017-05-30T11:19:28.881Z,26.60
2017-05-30T11:21:57.708Z,26.90
2017-05-30T11:24:26.541Z,26.90
2017-05-30T11:26:55.392Z,27.00
2017-05-30T11:29:24.252Z,27.30
2017-05-30T11:31:53.081Z,27.50
2017-05-30T11:34:21.919Z,27.00
2017-05-30T11:36:50.016Z,27.00
2017-05-30T11:39:18.848Z,27.00
2017-05-30T11:41:47.694Z,27.20
2017-05-30T11:44:16.537Z,27.20
2017-05-30T11:46:45.399Z,27.40
2017-05-30T11:49:14.239Z,28.00
2017-05-30T11:51:43.064Z,27.90
2017-05-30T11:54:11.899Z,27.50
2017-05-30T11:56:40.731Z,27.30
2017-05-30T11:59:09.767Z,27.90
2017-05-30T12:01:38.599Z,27.70
2017-05-30T12:04:06.692Z,27.70
2017-05-30T12:06:35.518Z,28.20
2017-05-30T12:09:04.353Z,28.20
2017-05-30T12:11:33.192Z,28.40
2017-05-30T12:14:02.040Z,29.20
2017-05-30T12:16:30.887Z,28.60
2017-05-30T12:18:59.721Z,28.50
2017-05-30T12:21:28.579Z,28.80
2017-05-30T12:23:57.408Z,28.00
2017-05-30T12:26:26.255Z,28.50
2017-05-30T12:28:55.309Z,28.80
2017-05-30T12:31:24.140Z,29.80
2017-05-30T12:33:52.992Z,30.10
2017-05-30T12:36:21.841Z,30.70
2017-05-30T12:38:50.719Z,30.10
2017-05-30T12:41:19.561Z,30.20
2017-05-30T12:43:48.398Z,30.60
2017-05-30T12:46:17.245Z,30.90
2017-05-30T12:48:46.087Z,31.20
2017-05-30T12:51:14.168Z,31.20
2017-05-30T12:53:43.013Z,32.30
2017-05-30T12:56:11.877Z,31.60
2017-05-30T12:58:40.712Z,30.90
2017-05-30T13:01:09.544Z,31.30
2017-05-30T13:03:38.389Z,31.00
2017-05-30T13:06:07.250Z,31.20
2017-05-30T13:08:36.089Z,31.00
2017-05-30T13:11:04.922Z,32.20
2017-05-30T13:13:33.792Z,31.60
2017-05-30T13:16:01.856Z,31.60
2017-05-30T13:18:30.690Z,31.30
2017-05-30T13:20:59.524Z,30.60
2017-05-30T13:23:28.368Z,30.90
2017-05-30T13:28:54.713Z,31.20
2017-05-30T13:31:23.569Z,31.90
2017-05-30T13:33:51.639Z,31.90
2017-05-30T13:36:20.468Z,30.50
2017-05-30T13:38:49.315Z,30.50
2017-05-30T13:41:18.144Z,30.40
2017-05-30T13:43:47.020Z,30.20
2017-05-30T13:46:15.863Z,30.80
2017-05-30T13:48:44.707Z,31.40
2017-05-30T13:51:13.534Z,31.30
2017-05-30T13:53:42.366Z,30.80
2017-05-30T13:56:11.211Z,31.40
2017-05-30T13:58:40.270Z,30.60
2017-05-30T14:01:09.148Z,30.50
2017-05-30T14:03:38.006Z,30.30
2017-05-30T14:06:06.863Z,30.20
2017-05-30T14:08:35.694Z,30.20
2017-05-30T14:11:04.528Z,30.10
2017-05-30T14:13:33.376Z,30.20
2017-05-30T14:16:02.214Z,29.70
2017-05-30T14:18:31.067Z,29.80
2017-05-30T14:20:59.899Z,30.00
2017-05-30T14:23:28.743Z,30.60
2017-05-30T14:25:57.569Z,30.70
2017-05-30T14:28:26.423Z,30.10
2017-05-30T14:30:55.259Z,30.60
2017-05-30T14:33:24.105Z,30.50
2017-05-30T14:35:52.931Z,30.40
2017-05-30T14:38:21.777Z,30.50
2017-05-30T14:40:50.639Z,30.50
2017-05-30T14:43:19.478Z,30.40
2017-05-30T14:45:48.295Z,30.50
2017-05-30T14:48:17.148Z,30.60
2017-05-30T14:50:45.970Z,30.40
2017-05-30T14:53:14.050Z,30.40
2017-05-30T14:55:42.880Z,30.00
2017-05-30T14:58:11.722Z,30.00
2017-05-30T15:00:40.557Z,30.00
2017-05-30T15:03:09.405Z,29.90
2017-05-30T15:05:38.264Z,29.70
2017-05-30T15:08:07.125Z,29.50
2017-05-30T15:10:35.960Z,29.50
2017-05-30T15:13:04.804Z,29.20
2017-05-30T15:15:33.669Z,29.40
2017-05-30T15:18:02.503Z,29.50
2017-05-30T15:20:31.335Z,29.60
2017-05-30T15:23:00.163Z,29.60
2017-05-30T15:25:28.987Z,29.70
2017-05-30T15:27:57.840Z,29.80
2017-05-30T15:30:26.664Z,29.60
2017-05-30T15:32:55.503Z,29.20
2017-05-30T15:35:24.335Z,29.20
2017-05-30T15:37:53.177Z,28.60
2017-05-30T15:42:59.975Z,28.80
2017-05-30T15:45:28.820Z,28.50
2017-05-30T15:47:57.655Z,28.60
2017-05-30T15:50:26.488Z,28.60
2017-05-30T15:52:54.557Z,28.60
2017-05-30T15:55:23.440Z,28.30
2017-05-30T15:57:52.289Z,28.40
2017-05-30T16:00:21.119Z,28.20
2017-05-30T16:02:49.192Z,28.10
2017-05-30T16:05:18.046Z,27.40
2017-05-30T16:07:46.882Z,27.40
2017-05-30T16:10:15.726Z,27.20
2017-05-30T16:12:44.592Z,27.10
2017-05-30T16:15:13.436Z,26.90
2017-05-30T16:17:42.265Z,26.80
2017-05-30T16:20:11.116Z,26.90
2017-05-30T16:22:39.963Z,26.90
2017-05-30T16:25:08.808Z,26.60
2017-05-30T16:27:37.633Z,26.40
2017-05-30T16:30:06.483Z,26.30
2017-05-30T16:32:35.309Z,26.30
2017-05-30T16:35:04.141Z,26.20
2017-05-30T16:37:32.982Z,26.20
2017-05-30T16:40:01.863Z,26.40
2017-05-30T16:42:29.908Z,26.30
2017-05-30T16:44:58.761Z,26.70
2017-05-30T16:47:27.613Z,26.70
2017-05-30T16:49:56.444Z,26.00
2017-05-30T16:52:25.280Z,26.00
2017-05-30T16:54:54.123Z,26.20
2017-05-30T16:57:22.961Z,26.40
2017-05-30T16:59:51.803Z,26.30
2017-05-30T17:02:20.646Z,25.60
2017-05-30T17:04:49.520Z,25.40
2017-05-30T17:07:18.360Z,25.40
2017-05-30T17:09:47.238Z,25.00
2017-05-30T17:12:16.052Z,24.90
2017-05-30T17:14:44.899Z,24.90
2017-05-30T17:17:13.752Z,25.20
2017-05-30T17:19:42.602Z,25.20
2017-05-30T17:22:11.455Z,25.40
2017-05-30T17:24:40.291Z,24.90
2017-05-30T17:27:09.135Z,25.00
2017-05-30T17:29:37.974Z,24.40
2017-05-30T17:32:06.817Z,24.60
2017-05-30T17:34:35.655Z,24.60
2017-05-30T17:37:04.500Z,24.80
2017-05-30T17:39:33.349Z,24.80
2017-05-30T17:42:02.180Z,24.60
2017-05-30T17:44:31.021Z,24.70
2017-05-30T17:46:59.318Z,24.70
2017-05-30T17:49:28.135Z,25.20
2017-05-30T17:51:56.979Z,25.20
2017-05-30T17:58:34.167Z,25.20
2017-05-30T18:01:03.020Z,24.60
2017-05-30T18:03:31.116Z,24.60
2017-05-30T18:05:59.192Z,24.50
2017-05-30T18:08:28.029Z,24.60
2017-05-30T18:10:56.868Z,24.70
2017-05-30T18:13:25.808Z,24.40
2017-05-30T18:15:54.639Z,24.10
2017-05-30T18:18:23.480Z,24.30
2017-05-30T18:20:52.350Z,24.40
2017-05-30T18:23:21.192Z,24.40
2017-05-30T18:25:50.032Z,24.60
2017-05-30T18:28:18.884Z,24.30
2017-05-30T18:30:47.704Z,23.90
2017-05-30T18:33:16.586Z,23.80
2017-05-30T18:35:45.425Z,23.70
2017-05-30T18:38:14.312Z,24.00
2017-05-30T18:40:43.117Z,24.20
2017-05-30T18:43:11.947Z,24.40
2017-05-30T18:45:40.780Z,24.30
2017-05-30T18:48:09.615Z,24.30
2017-05-30T18:50:38.452Z,24.30
2017-05-30T18:53:07.287Z,24.30
2017-05-30T18:55:35.395Z,24.20
2017-05-30T18:58:04.265Z,24.30
2017-05-30T19:00:33.112Z,24.30
2017-05-30T19:03:01.974Z,24.20
2017-05-30T19:05:30.795Z,24.10
2017-05-30T19:07:59.654Z,24.00
2017-05-30T19:10:28.482Z,23.90
2017-05-30T19:12:57.548Z,23.80
2017-05-30T19:15:26.380Z,23.50
2017-05-30T19:17:55.260Z,23.40
2017-05-30T19:20:24.100Z,23.60
2017-05-30T19:22:52.948Z,23.60
2017-05-30T19:25:21.024Z,23.60
2017-05-30T19:27:49.856Z,23.10
2017-05-30T19:30:18.721Z,23.10
2017-05-30T19:32:47.581Z,23.10
2017-05-30T19:35:16.412Z,23.00
2017-05-30T19:37:45.255Z,23.10
2017-05-30T19:40:14.093Z,22.30
2017-05-30T19:42:43.164Z,22.70
2017-05-30T19:45:11.985Z,22.80
2017-05-30T19:47:40.836Z,22.50
2017-05-30T19:50:09.667Z,22.60
2017-05-30T19:52:38.507Z,22.80
2017-05-30T19:55:07.348Z,22.90
2017-05-30T19:57:36.185Z,22.60
2017-05-30T20:00:05.025Z,22.40
2017-05-30T20:02:33.087Z,22.40
2017-05-30T20:05:01.944Z,22.00
2017-05-30T20:07:30.788Z,21.90
2017-05-30T20:09:59.619Z,21.70
2017-05-30T20:12:28.476Z,21.90
2017-05-30T20:14:57.319Z,22.20
2017-05-30T20:17:26.164Z,22.20
2017-05-30T20:19:55.011Z,21.80
2017-05-30T20:22:23.225Z,21.70
2017-05-30T20:24:52.303Z,21.40
2017-05-30T20:27:21.143Z,21.40
2017-05-30T20:29:50.388Z,21.40
2017-05-30T20:32:19.238Z,21.10
2017-05-30T20:34:48.089Z,21.40
2017-05-30T20:37:16.944Z,21.10
2017-05-30T20:39:45.793Z,20.80
2017-05-30T20:42:14.641Z,21.10
2017-05-30T20:44:43.463Z,20.70
2017-05-30T20:47:12.307Z,20.80
2017-05-30T20:49:41.156Z,21.20
2017-05-30T20:52:10.000Z,21.40
2017-05-30T20:54:38.839Z,21.40
2017-05-30T20:57:07.688Z,21.50
2017-05-30T20:59:36.529Z,21.50
2017-05-30T21:02:05.403Z,21.40
2017-05-30T21:04:34.243Z,21.10
2017-05-30T21:07:03.098Z,20.50
2017-05-30T21:09:31.935Z,20.30
2017-05-30T21:12:00.779Z,20.20
2017-05-30T21:14:29.642Z,20.10
2017-05-30T21:16:58.481Z,20.10
2017-05-30T21:19:27.324Z,20.20
2017-05-30T21:21:56.377Z,20.10
2017-05-30T21:24:25.404Z,20.00
2017-05-30T21:26:54.435Z,20.00
2017-05-30T21:29:23.291Z,19.90
2017-05-30T21:31:51.385Z,19.90
2017-05-30T21:34:19.455Z,19.90
2017-05-30T21:36:48.292Z,19.90
2017-05-30T21:39:17.134Z,20.00
2017-05-30T21:41:45.959Z,20.00
2017-05-30T21:44:14.803Z,19.90
2017-05-30T21:46:43.639Z,20.10
2017-05-30T21:49:12.515Z,20.10
2017-05-30T21:51:41.360Z,20.10
2017-05-30T21:54:10.191Z,20.00
2017-05-30T21:56:39.039Z,19.90
2017-05-30T21:59:07.875Z,19.70
2017-05-30T22:01:36.733Z,19.80
2017-05-30T22:04:04.812Z,19.80
2017-05-30T22:06:33.655Z,19.90
2017-05-30T22:09:02.500Z,20.00
2017-05-30T22:11:31.365Z,19.70
2017-05-30T22:14:00.218Z,19.70
2017-05-30T22:16:29.068Z,19.80
2017-05-30T22:18:57.921Z,19.70
2017-05-30T22:21:26.759Z,19.70
2017-05-30T22:23:55.607Z,19.70
2017-05-30T22:26:23.680Z,19.70
2017-05-30T22:28:52.520Z,19.50
2017-05-30T22:31:21.388Z,19.40
2017-05-30T22:33:50.239Z,19.40
2017-05-30T22:36:19.084Z,19.50
2017-05-30T22:38:47.922Z,19.40
2017-05-30T22:41:16.793Z,19.20
2017-05-30T22:43:45.625Z,19.10
2017-05-30T22:46:14.466Z,19.10
2017-05-30T22:48:43.316Z,19.00
2017-05-30T22:51:12.178Z,19.20
2017-05-30T22:53:40.256Z,19.20
2017-05-30T22:56:09.095Z,19.10
2017-05-30T22:58:37.968Z,19.20
2017-05-30T23:01:06.819Z,19.20
2017-05-30T23:03:35.679Z,19.40
2017-05-30T23:06:04.524Z,19.10
2017-05-30T23:08:33.359Z,18.90
2017-05-30T23:11:02.219Z,19.00
2017-05-30T23:13:31.153Z,18.80
2017-05-30T23:16:00.031Z,18.70
2017-05-30T23:18:28.867Z,18.70
2017-05-30T23:20:57.709Z,18.70
2017-05-30T23:23:25.803Z,18.70
2017-05-30T23:25:54.652Z,18.60
2017-05-30T23:28:23.499Z,18.60
2017-05-30T23:30:52.682Z,18.60
2017-05-30T23:33:21.548Z,18.70
2017-05-30T23:35:50.740Z,18.60
2017-05-30T23:38:19.579Z,18.60
2017-05-30T23:40:48.427Z,18.50
2017-05-30T23:43:17.284Z,18.40
2017-05-30T23:45:46.137Z,18.40
2017-05-30T23:48:14.983Z,18.40
2017-05-30T23:50:43.822Z,18.40
2017-05-30T23:53:12.671Z,18.40
2017-05-30T23:55:41.504Z,18.40
2017-05-30T23:58:10.372Z,18.50
